createdAt,value
2019-03-31T00:00:49.808Z,9.70
2019-03-31T00:03:17.780Z,9.70
2019-03-31T00:05:45.753Z,9.70
2019-03-31T00:08:13.823Z,9.60
2019-03-31T00:10:41.788Z,9.60
2019-03-31T00:13:09.772Z,9.60
2019-03-31T00:15:37.848Z,9.60
2019-03-31T00:18:05.925Z,9.60
2019-03-31T00:20:34.008Z,9.50
2019-03-31T00:23:01.980Z,9.50
2019-03-31T00:25:29.985Z,9.50
2019-03-31T00:27:57.958Z,9.50
2019-03-31T00:30:25.920Z,9.50
2019-03-31T00:32:53.821Z,9.40
2019-03-31T00:35:21.789Z,9.40
2019-03-31T00:37:49.769Z,9.40
2019-03-31T00:40:17.881Z,9.40
2019-03-31T00:42:45.852Z,9.40
2019-03-31T00:45:13.826Z,9.40
2019-03-31T00:47:41.818Z,9.40
2019-03-31T00:50:10.000Z,9.30
2019-03-31T00:52:37.988Z,9.30
2019-03-31T00:55:06.769Z,9.30
2019-03-31T00:57:34.733Z,9.40
2019-03-31T01:00:04.945Z,9.40
2019-03-31T01:02:33.057Z,9.50
2019-03-31T01:05:01.342Z,9.60
2019-03-31T01:07:29.404Z,9.70
2019-03-31T01:09:57.367Z,9.60
2019-03-31T01:12:26.379Z,9.60
2019-03-31T01:14:54.410Z,9.70
2019-03-31T01:17:22.745Z,9.60
2019-03-31T01:19:52.469Z,9.60
2019-03-31T01:22:20.369Z,9.50
2019-03-31T01:24:48.405Z,9.50
2019-03-31T01:27:16.484Z,9.50
2019-03-31T01:29:44.452Z,9.50
2019-03-31T01:32:12.440Z,9.50
2019-03-31T01:34:40.411Z,9.50
2019-03-31T01:37:09.771Z,9.40
2019-03-31T01:39:37.981Z,9.50
2019-03-31T01:42:05.976Z,9.40
2019-03-31T01:44:34.046Z,9.30
2019-03-31T01:47:03.768Z,9.30
2019-03-31T01:49:31.842Z,9.40
2019-03-31T01:51:59.801Z,9.40
2019-03-31T01:54:27.994Z,9.50
2019-03-31T01:56:55.877Z,9.50
2019-03-31T01:59:23.877Z,9.50
2019-03-31T02:02:03.630Z,9.50
2019-03-31T02:04:21.650Z,9.60
2019-03-31T02:06:49.618Z,9.60
2019-03-31T02:09:17.936Z,9.70
2019-03-31T02:11:45.892Z,9.70
2019-03-31T02:14:13.926Z,9.70
2019-03-31T02:16:41.891Z,9.60
2019-03-31T02:19:09.835Z,9.40
2019-03-31T02:21:37.722Z,9.20
2019-03-31T02:24:05.588Z,9.20
2019-03-31T02:26:33.560Z,9.20
2019-03-31T02:29:01.548Z,9.10
2019-03-31T02:31:29.533Z,9.10
2019-03-31T02:33:57.485Z,9.10
2019-03-31T02:36:25.462Z,9.10
2019-03-31T02:38:53.441Z,9.20
2019-03-31T02:41:21.506Z,9.20
2019-03-31T02:43:49.562Z,9.20
2019-03-31T02:46:17.650Z,9.20
2019-03-31T02:48:45.625Z,9.30
2019-03-31T02:51:13.935Z,9.30
2019-03-31T02:53:41.927Z,9.30
2019-03-31T02:56:11.089Z,9.30
2019-03-31T02:58:39.157Z,9.30
2019-03-31T03:01:08.215Z,9.30
2019-03-31T03:03:38.153Z,9.30
2019-03-31T03:06:08.304Z,9.30
2019-03-31T03:08:37.402Z,9.40
2019-03-31T03:11:07.459Z,9.40
2019-03-31T03:13:35.517Z,9.40
2019-03-31T03:16:21.033Z,9.30
2019-03-31T03:18:50.093Z,9.40
2019-03-31T03:21:18.765Z,9.30
2019-03-31T03:23:46.819Z,9.20
2019-03-31T03:26:14.996Z,9.20
2019-03-31T03:28:43.434Z,9.20
2019-03-31T03:31:16.121Z,9.10
2019-03-31T03:33:41.877Z,9.10
2019-03-31T03:36:09.949Z,9.10
2019-03-31T03:38:37.972Z,9.10
2019-03-31T03:41:05.936Z,9.10
2019-03-31T03:43:33.901Z,9.10
2019-03-31T03:46:01.992Z,9.10
2019-03-31T03:48:30.161Z,9.10
2019-03-31T03:50:58.133Z,9.00
2019-03-31T03:53:26.101Z,9.00
2019-03-31T03:55:54.212Z,9.10
2019-03-31T03:58:22.271Z,9.10
2019-03-31T04:00:50.306Z,9.10
2019-03-31T04:03:30.217Z,9.10
2019-03-31T04:05:48.266Z,9.10
2019-03-31T04:08:16.190Z,9.10
2019-03-31T04:11:20.840Z,9.10
2019-03-31T04:13:46.691Z,9.00
2019-03-31T04:16:14.877Z,9.00
2019-03-31T04:18:42.893Z,9.00
2019-03-31T04:21:10.905Z,9.00
2019-03-31T04:23:39.160Z,8.90
2019-03-31T04:26:07.125Z,8.90
2019-03-31T04:28:35.109Z,8.90
2019-03-31T04:31:03.057Z,8.80
2019-03-31T04:33:49.714Z,8.90
2019-03-31T04:36:00.730Z,9.00
2019-03-31T04:38:28.761Z,8.90
2019-03-31T04:40:56.734Z,8.90
2019-03-31T04:43:24.845Z,8.90
2019-03-31T04:45:52.920Z,8.80
2019-03-31T04:48:20.903Z,8.80
2019-03-31T04:50:51.924Z,8.70
2019-03-31T04:53:18.784Z,8.70
2019-03-31T04:55:46.760Z,8.70
2019-03-31T04:58:14.743Z,8.60
2019-03-31T05:00:42.700Z,8.60
2019-03-31T05:03:10.680Z,8.60
2019-03-31T05:05:38.776Z,8.60
2019-03-31T05:08:06.736Z,8.50
2019-03-31T05:10:34.825Z,8.50
2019-03-31T05:13:02.803Z,8.50
2019-03-31T05:15:30.872Z,8.50
2019-03-31T05:17:58.837Z,8.50
2019-03-31T05:20:26.832Z,8.50
2019-03-31T05:22:54.909Z,8.50
2019-03-31T05:25:22.871Z,8.50
2019-03-31T05:27:51.057Z,8.50
2019-03-31T05:30:19.096Z,8.50
2019-03-31T05:32:47.109Z,8.50
2019-03-31T05:35:15.060Z,8.40
2019-03-31T05:37:50.818Z,8.50
2019-03-31T05:40:13.087Z,8.50
2019-03-31T05:42:41.082Z,8.50
2019-03-31T05:45:09.084Z,8.50
2019-03-31T05:47:37.062Z,8.50
2019-03-31T05:50:05.459Z,8.50
2019-03-31T05:52:33.466Z,8.60
2019-03-31T05:55:01.536Z,8.60
2019-03-31T05:57:29.515Z,8.60
2019-03-31T05:59:57.601Z,8.60
2019-03-31T06:02:25.576Z,8.70
2019-03-31T06:04:53.550Z,8.80
2019-03-31T06:07:21.557Z,8.90
2019-03-31T06:09:49.546Z,8.90
2019-03-31T06:12:17.637Z,9.10
2019-03-31T06:14:45.733Z,9.20
2019-03-31T06:17:13.706Z,9.30
2019-03-31T06:19:41.692Z,9.40
2019-03-31T06:22:09.845Z,9.60
2019-03-31T06:24:37.821Z,9.70
2019-03-31T06:27:05.776Z,9.70
2019-03-31T06:29:33.890Z,9.80
2019-03-31T06:32:01.881Z,9.90
2019-03-31T06:34:29.864Z,9.90
2019-03-31T06:36:57.880Z,10.00
2019-03-31T06:39:25.851Z,10.00
2019-03-31T06:41:53.812Z,10.00
2019-03-31T06:44:21.788Z,10.10
2019-03-31T06:46:49.817Z,10.20
2019-03-31T06:49:17.990Z,10.20
2019-03-31T06:51:45.968Z,10.20
2019-03-31T06:54:13.937Z,10.30
2019-03-31T06:56:41.933Z,10.20
2019-03-31T06:59:09.892Z,10.30
2019-03-31T07:01:37.844Z,10.20
2019-03-31T07:04:05.839Z,10.30
2019-03-31T07:06:33.805Z,10.30
2019-03-31T07:09:01.784Z,10.40
2019-03-31T07:11:29.969Z,10.40
2019-03-31T07:13:57.943Z,10.30
2019-03-31T07:16:25.935Z,10.30
2019-03-31T07:18:53.900Z,10.40
2019-03-31T07:21:21.864Z,10.50
2019-03-31T07:23:49.889Z,10.50
2019-03-31T07:26:17.989Z,10.40
2019-03-31T07:28:45.995Z,10.40
2019-03-31T07:31:13.974Z,10.30
2019-03-31T07:33:42.052Z,10.30
2019-03-31T07:36:10.157Z,10.20
2019-03-31T07:38:39.530Z,10.20
2019-03-31T07:41:12.991Z,10.20
2019-03-31T07:43:37.667Z,10.20
2019-03-31T07:46:05.644Z,10.10
2019-03-31T07:48:33.678Z,10.10
2019-03-31T07:51:01.630Z,10.10
2019-03-31T07:53:29.602Z,10.00
2019-03-31T07:55:57.599Z,10.00
2019-03-31T07:58:25.685Z,9.90
2019-03-31T08:00:53.677Z,9.90
2019-03-31T08:03:21.664Z,9.90
2019-03-31T08:05:49.775Z,9.90
2019-03-31T08:08:17.995Z,10.00
2019-03-31T08:10:45.987Z,10.00
2019-03-31T08:13:14.018Z,9.90
2019-03-31T08:15:41.980Z,9.90
2019-03-31T08:18:09.945Z,9.90
2019-03-31T08:20:37.913Z,9.80
2019-03-31T08:23:06.014Z,9.70
2019-03-31T08:25:34.221Z,9.60
2019-03-31T08:28:02.200Z,9.60
2019-03-31T08:30:30.287Z,9.60
2019-03-31T08:32:58.171Z,9.50
2019-03-31T08:35:26.144Z,9.50
2019-03-31T08:37:54.118Z,9.50
2019-03-31T08:40:22.212Z,9.50
2019-03-31T08:42:50.192Z,9.50
2019-03-31T08:45:18.276Z,9.60
2019-03-31T08:47:46.372Z,9.60
2019-03-31T08:50:15.584Z,9.60
2019-03-31T08:52:43.564Z,9.60
2019-03-31T08:55:11.872Z,9.60
2019-03-31T08:57:39.844Z,9.50
2019-03-31T09:00:12.545Z,9.60
2019-03-31T09:02:40.625Z,9.60
2019-03-31T09:05:09.513Z,9.50
2019-03-31T09:07:37.568Z,9.50
2019-03-31T09:10:07.135Z,9.50
2019-03-31T09:12:35.172Z,9.50
2019-03-31T09:15:03.296Z,9.50
2019-03-31T09:17:31.260Z,9.60
2019-03-31T09:19:59.455Z,9.60
2019-03-31T09:22:27.330Z,9.70
2019-03-31T09:24:55.310Z,9.70
2019-03-31T09:27:23.377Z,9.80
2019-03-31T09:29:51.244Z,9.80
2019-03-31T09:32:19.280Z,9.90
2019-03-31T09:34:47.347Z,9.90
2019-03-31T09:37:15.425Z,9.90
2019-03-31T09:39:43.549Z,9.90
2019-03-31T09:42:11.512Z,9.90
2019-03-31T09:44:39.468Z,10.00
2019-03-31T09:47:07.452Z,10.00
2019-03-31T09:49:35.434Z,10.10
2019-03-31T09:52:03.403Z,10.20
2019-03-31T09:54:31.397Z,10.20
2019-03-31T09:56:59.384Z,10.30
2019-03-31T09:59:27.558Z,10.40
2019-03-31T10:01:55.630Z,10.50
2019-03-31T10:04:23.652Z,10.60
2019-03-31T10:06:52.021Z,10.60
2019-03-31T10:09:19.990Z,10.70
2019-03-31T10:11:47.997Z,10.80
2019-03-31T10:14:16.134Z,10.70
2019-03-31T10:16:44.146Z,10.60
2019-03-31T10:19:12.124Z,10.70
2019-03-31T10:21:40.191Z,10.80
2019-03-31T10:24:08.186Z,11.00
2019-03-31T10:26:36.255Z,11.00
2019-03-31T10:29:04.329Z,11.10
2019-03-31T10:31:32.338Z,11.10
2019-03-31T10:34:00.164Z,11.10
2019-03-31T10:36:28.911Z,11.20
2019-03-31T10:38:56.860Z,11.10
2019-03-31T10:41:24.816Z,11.20
2019-03-31T10:43:52.812Z,11.30
2019-03-31T10:46:20.762Z,11.30
2019-03-31T10:48:48.829Z,11.40
2019-03-31T10:51:16.752Z,11.40
2019-03-31T10:53:44.891Z,11.40
2019-03-31T10:56:12.858Z,11.40
2019-03-31T10:58:40.824Z,11.50
2019-03-31T11:01:08.820Z,11.60
2019-03-31T11:03:36.932Z,11.70
2019-03-31T11:06:04.937Z,11.80
2019-03-31T11:08:32.992Z,11.80
2019-03-31T11:11:00.964Z,11.70
2019-03-31T11:13:29.021Z,11.80
2019-03-31T11:15:57.633Z,12.00
2019-03-31T11:18:25.807Z,12.00
2019-03-31T11:20:53.875Z,12.10
2019-03-31T11:23:23.804Z,12.10
2019-03-31T11:25:51.876Z,12.20
2019-03-31T11:28:19.877Z,12.20
2019-03-31T11:30:48.199Z,12.20
2019-03-31T11:33:16.174Z,12.10
2019-03-31T11:35:44.264Z,12.20
2019-03-31T11:38:12.272Z,12.20
2019-03-31T11:40:40.240Z,12.30
2019-03-31T11:43:08.190Z,12.30
2019-03-31T11:45:36.173Z,12.40
2019-03-31T11:48:04.167Z,12.40
2019-03-31T11:50:32.108Z,12.40
2019-03-31T11:53:00.113Z,12.60
2019-03-31T11:55:28.237Z,12.60
2019-03-31T11:57:56.197Z,12.70
2019-03-31T12:00:24.669Z,12.90
2019-03-31T12:02:52.621Z,13.00
2019-03-31T12:05:20.603Z,13.20
2019-03-31T12:07:48.740Z,13.30
2019-03-31T12:10:19.617Z,13.50
2019-03-31T12:12:46.624Z,13.50
2019-03-31T12:15:14.589Z,13.40
2019-03-31T12:17:42.576Z,13.50
2019-03-31T12:20:10.775Z,13.50
2019-03-31T12:22:38.639Z,13.60
2019-03-31T12:25:07.811Z,13.50
2019-03-31T12:27:35.764Z,13.60
2019-03-31T12:30:04.156Z,13.60
2019-03-31T12:32:32.132Z,13.60
2019-03-31T12:35:00.105Z,13.60
2019-03-31T12:37:41.290Z,13.70
2019-03-31T12:39:57.973Z,13.70
2019-03-31T12:42:25.944Z,13.70
2019-03-31T12:44:53.943Z,13.70
2019-03-31T12:47:21.925Z,13.70
2019-03-31T12:49:49.968Z,13.60
2019-03-31T12:52:18.068Z,13.50
2019-03-31T12:54:46.190Z,13.50
2019-03-31T12:57:14.332Z,13.70
2019-03-31T12:59:42.412Z,13.70
2019-03-31T13:02:10.454Z,13.70
2019-03-31T13:04:38.415Z,13.80
2019-03-31T13:07:06.384Z,13.90
2019-03-31T13:09:34.465Z,13.90
2019-03-31T13:12:02.665Z,14.10
2019-03-31T13:14:30.634Z,14.10
2019-03-31T13:17:01.452Z,14.10
2019-03-31T13:19:28.536Z,14.20
2019-03-31T13:21:56.463Z,14.30
2019-03-31T13:24:24.436Z,14.30
2019-03-31T13:26:52.544Z,14.40
2019-03-31T13:29:20.506Z,14.40
2019-03-31T13:31:48.456Z,14.40
2019-03-31T13:34:16.453Z,14.40
2019-03-31T13:36:44.425Z,14.40
2019-03-31T13:39:12.444Z,14.40
2019-03-31T13:41:40.444Z,14.30
2019-03-31T13:44:08.414Z,14.40
2019-03-31T13:46:36.380Z,14.50
2019-03-31T13:49:04.324Z,14.50
2019-03-31T13:51:32.246Z,14.40
2019-03-31T13:54:00.066Z,14.30
2019-03-31T13:56:28.299Z,14.20
2019-03-31T13:58:56.711Z,14.30
2019-03-31T14:01:24.767Z,14.30
2019-03-31T14:03:52.749Z,14.30
2019-03-31T14:06:20.748Z,14.40
2019-03-31T14:08:48.744Z,14.30
2019-03-31T14:11:16.708Z,14.30
2019-03-31T14:13:44.589Z,14.40
2019-03-31T14:16:12.768Z,14.40
2019-03-31T14:18:40.739Z,14.30
2019-03-31T14:21:08.801Z,14.20
2019-03-31T14:23:36.849Z,14.10
2019-03-31T14:26:04.708Z,14.10
2019-03-31T14:28:32.698Z,14.10
2019-03-31T14:31:00.840Z,14.10
2019-03-31T14:33:28.809Z,13.90
2019-03-31T14:35:56.887Z,13.90
2019-03-31T14:38:39.154Z,13.80
2019-03-31T14:40:54.793Z,13.80
2019-03-31T14:43:22.797Z,13.80
2019-03-31T14:45:50.805Z,13.90
2019-03-31T14:48:18.793Z,13.80
2019-03-31T14:50:46.916Z,13.70
2019-03-31T14:53:14.956Z,13.80
2019-03-31T14:55:44.030Z,13.80
2019-03-31T14:58:12.000Z,13.80
2019-03-31T15:00:40.084Z,13.80
2019-03-31T15:03:08.068Z,13.80
2019-03-31T15:05:36.053Z,13.80
2019-03-31T15:08:04.240Z,13.80
2019-03-31T15:10:32.482Z,13.80
2019-03-31T15:13:00.458Z,13.80
2019-03-31T15:15:28.393Z,13.80
2019-03-31T15:17:56.421Z,13.80
2019-03-31T15:20:24.389Z,13.80
2019-03-31T15:22:52.525Z,13.70
2019-03-31T15:25:20.557Z,13.70
2019-03-31T15:27:48.676Z,13.60
2019-03-31T15:30:16.796Z,13.60
2019-03-31T15:32:44.897Z,13.60
2019-03-31T15:35:13.185Z,13.70
2019-03-31T15:37:41.278Z,13.60
2019-03-31T15:40:09.278Z,13.60
2019-03-31T15:42:37.290Z,13.60
2019-03-31T15:45:05.629Z,13.60
2019-03-31T15:47:33.611Z,13.50
2019-03-31T15:50:01.584Z,13.60
2019-03-31T15:52:29.595Z,13.60
2019-03-31T15:54:57.650Z,13.60
2019-03-31T15:57:25.727Z,13.60
2019-03-31T15:59:53.943Z,13.50
2019-03-31T16:02:23.329Z,13.50
2019-03-31T16:04:51.389Z,13.50
2019-03-31T16:07:19.396Z,13.50
2019-03-31T16:09:47.734Z,13.50
2019-03-31T16:12:15.176Z,13.40
2019-03-31T16:14:42.655Z,13.40
2019-03-31T16:17:10.090Z,13.30
2019-03-31T16:19:37.437Z,13.30
2019-03-31T16:22:04.880Z,13.30
2019-03-31T16:24:41.253Z,13.40
2019-03-31T16:27:08.707Z,13.40
2019-03-31T16:29:36.132Z,13.40
2019-03-31T16:32:03.903Z,13.40
2019-03-31T16:34:31.486Z,13.40
2019-03-31T16:36:58.921Z,13.40
2019-03-31T16:39:37.008Z,13.40
2019-03-31T16:41:55.597Z,13.40
2019-03-31T16:44:23.074Z,13.30
2019-03-31T16:46:50.609Z,13.30
2019-03-31T16:49:18.073Z,13.30
2019-03-31T16:51:45.548Z,13.30
2019-03-31T16:54:13.005Z,13.20
2019-03-31T16:56:40.512Z,13.20
2019-03-31T16:59:07.991Z,13.20
2019-03-31T17:01:35.969Z,13.20
2019-03-31T17:04:03.396Z,13.10
2019-03-31T17:06:30.869Z,13.10
2019-03-31T17:08:58.308Z,13.10
2019-03-31T17:11:25.895Z,13.00
2019-03-31T17:13:53.409Z,12.90
2019-03-31T17:16:20.963Z,12.90
2019-03-31T17:18:48.544Z,12.90
2019-03-31T17:21:17.234Z,12.90
2019-03-31T17:23:44.688Z,12.80
2019-03-31T17:26:12.428Z,12.70
2019-03-31T17:28:39.891Z,12.70
2019-03-31T17:31:07.502Z,12.60
2019-03-31T17:33:35.073Z,12.60
2019-03-31T17:36:02.990Z,12.50
2019-03-31T17:38:30.462Z,12.40
2019-03-31T17:40:57.945Z,12.40
2019-03-31T17:43:25.416Z,12.40
2019-03-31T17:45:52.857Z,12.30
2019-03-31T17:48:20.383Z,12.30
2019-03-31T17:50:48.136Z,12.20
2019-03-31T17:53:15.569Z,12.10
2019-03-31T17:55:43.049Z,12.10
2019-03-31T17:58:10.545Z,12.10
2019-03-31T18:00:38.008Z,12.10
2019-03-31T18:03:05.493Z,12.00
2019-03-31T18:05:33.082Z,12.00
2019-03-31T18:08:00.701Z,11.90
2019-03-31T18:10:28.151Z,11.90
2019-03-31T18:12:56.927Z,11.90
2019-03-31T18:15:24.403Z,11.80
2019-03-31T18:17:51.923Z,11.90
2019-03-31T18:20:19.537Z,11.80
2019-03-31T18:22:47.044Z,11.80
2019-03-31T18:25:14.453Z,11.80
2019-03-31T18:27:41.891Z,11.80
2019-03-31T18:30:11.477Z,11.70
2019-03-31T18:32:38.912Z,11.70
2019-03-31T18:35:06.393Z,11.60
2019-03-31T18:37:34.193Z,11.60
2019-03-31T18:40:01.701Z,11.50
2019-03-31T18:42:29.128Z,11.50
2019-03-31T18:44:56.621Z,11.50
2019-03-31T18:47:24.072Z,11.50
2019-03-31T18:49:51.638Z,11.40
2019-03-31T18:52:19.199Z,11.40
2019-03-31T18:54:54.413Z,11.40
2019-03-31T18:57:44.579Z,11.30
2019-03-31T19:00:28.117Z,11.30
2019-03-31T19:03:13.942Z,11.30
2019-03-31T19:06:00.948Z,11.20
2019-03-31T19:08:54.471Z,11.20
2019-03-31T19:11:50.514Z,11.10
2019-03-31T19:14:46.236Z,11.10
2019-03-31T19:17:23.203Z,11.00
2019-03-31T19:20:13.147Z,10.90
2019-03-31T19:22:58.830Z,10.90
2019-03-31T19:25:48.789Z,10.90
2019-03-31T19:28:41.188Z,10.90
2019-03-31T19:31:21.528Z,10.90
2019-03-31T19:34:08.570Z,10.80
2019-03-31T19:36:49.313Z,10.80
2019-03-31T19:39:33.495Z,10.80
2019-03-31T19:42:10.441Z,10.70
2019-03-31T19:44:58.603Z,10.70
2019-03-31T19:47:40.385Z,10.70
2019-03-31T19:50:18.808Z,10.60
2019-03-31T19:52:56.613Z,10.50
2019-03-31T19:55:46.186Z,10.50
2019-03-31T19:58:32.195Z,10.40
2019-03-31T20:01:10.384Z,10.40
2019-03-31T20:03:45.629Z,10.40
2019-03-31T20:06:20.352Z,10.40
2019-03-31T20:09:13.144Z,10.40
2019-03-31T20:12:05.636Z,10.40
2019-03-31T20:15:10.769Z,10.30
2019-03-31T20:17:48.110Z,10.30
2019-03-31T20:20:37.896Z,10.30
2019-03-31T20:23:24.864Z,10.20
2019-03-31T20:26:11.816Z,10.20
2019-03-31T20:28:46.076Z,10.20
2019-03-31T20:31:36.061Z,10.20
2019-03-31T20:34:23.008Z,10.10
2019-03-31T20:37:16.297Z,10.10
2019-03-31T20:40:03.484Z,10.10
2019-03-31T20:42:56.677Z,10.00
2019-03-31T20:45:24.118Z,10.00
2019-03-31T20:47:51.660Z,9.90
2019-03-31T20:50:19.396Z,9.90
2019-03-31T20:52:46.837Z,9.90
2019-03-31T20:55:16.550Z,9.90
2019-03-31T20:57:43.701Z,9.80
2019-03-31T21:00:11.988Z,9.80
2019-03-31T21:02:39.437Z,9.80
2019-03-31T21:05:06.884Z,9.70
2019-03-31T21:07:34.341Z,9.60
2019-03-31T21:10:01.826Z,9.60
2019-03-31T21:12:29.254Z,9.60
2019-03-31T21:14:56.717Z,9.50
2019-03-31T21:17:24.149Z,9.50
2019-03-31T21:19:51.580Z,9.40
2019-03-31T21:22:19.038Z,9.40
2019-03-31T21:24:46.482Z,9.40
2019-03-31T21:27:14.509Z,9.30
2019-03-31T21:29:41.976Z,9.30
2019-03-31T21:32:10.919Z,9.20
2019-03-31T21:34:38.360Z,9.20
2019-03-31T21:37:05.848Z,9.20
2019-03-31T21:39:33.275Z,9.10
2019-03-31T21:42:00.720Z,9.10
2019-03-31T21:44:28.190Z,9.10
2019-03-31T21:46:56.105Z,9.10
2019-03-31T21:49:23.665Z,9.00
2019-03-31T21:51:51.094Z,9.00
2019-03-31T21:54:18.570Z,9.00
2019-03-31T21:56:46.025Z,8.90
2019-03-31T21:59:13.477Z,8.90
2019-03-31T22:01:41.008Z,8.80
2019-03-31T22:04:08.466Z,8.80
2019-03-31T22:06:35.893Z,8.70
2019-03-31T22:09:06.375Z,8.70
2019-03-31T22:11:33.799Z,8.80
2019-03-31T22:14:01.238Z,8.70
2019-03-31T22:16:28.684Z,8.70
2019-03-31T22:18:56.127Z,8.60
2019-03-31T22:21:23.557Z,8.60
2019-03-31T22:23:57.964Z,8.60
2019-03-31T22:26:20.272Z,8.50
2019-03-31T22:28:47.864Z,8.50
2019-03-31T22:31:15.489Z,8.50
2019-03-31T22:33:42.923Z,8.60
2019-03-31T22:36:22.278Z,8.50
2019-03-31T22:38:52.037Z,8.50
2019-03-31T22:41:19.842Z,8.50
2019-03-31T22:43:48.416Z,8.50
2019-03-31T22:46:15.884Z,8.40
2019-03-31T22:48:43.312Z,8.40
2019-03-31T22:51:10.979Z,8.30
2019-03-31T22:53:38.742Z,8.40
2019-03-31T22:56:06.180Z,8.30
2019-03-31T22:58:33.632Z,8.30
2019-03-31T23:01:01.232Z,8.20
2019-03-31T23:03:28.653Z,8.20
2019-03-31T23:05:56.291Z,8.20
2019-03-31T23:08:23.741Z,8.10
2019-03-31T23:10:51.203Z,8.10
2019-03-31T23:13:18.680Z,8.00
2019-03-31T23:15:46.140Z,8.10
2019-03-31T23:18:13.576Z,8.00
2019-03-31T23:20:41.114Z,7.90
2019-03-31T23:23:08.572Z,7.90
2019-03-31T23:25:35.900Z,7.90
2019-03-31T23:28:03.319Z,7.80
2019-03-31T23:30:30.780Z,7.80
2019-03-31T23:32:58.208Z,7.70
2019-03-31T23:35:25.691Z,7.80
2019-03-31T23:37:53.116Z,7.70
2019-03-31T23:40:20.558Z,7.70
2019-03-31T23:42:48.026Z,7.60
2019-03-31T23:45:15.456Z,7.50
2019-03-31T23:47:42.904Z,7.60
2019-03-31T23:50:10.348Z,7.50
2019-03-31T23:52:37.801Z,7.40
2019-03-31T23:55:05.226Z,7.40
2019-03-31T23:57:39.099Z,7.40
